createdAt,value
2024-03-09T00:00:50.429Z,0.70
2024-03-09T00:03:18.492Z,0.65
2024-03-09T00:05:46.419Z,0.60
2024-03-09T00:08:19.044Z,0.60
2024-03-09T00:10:50.357Z,0.65
2024-03-09T00:13:18.360Z,0.60
2024-03-09T00:15:46.346Z,0.82
2024-03-09T00:18:15.576Z,1.20
2024-03-09T00:20:46.174Z,0.77
2024-03-09T00:23:15.630Z,0.60
2024-03-09T00:25:43.590Z,0.95
2024-03-09T00:28:13.153Z,0.55
2024-03-09T00:30:42.803Z,0.80
2024-03-09T00:33:10.721Z,0.70
2024-03-09T00:35:38.687Z,0.73
2024-03-09T00:38:07.305Z,0.90
2024-03-09T00:40:36.868Z,0.70
2024-03-09T00:43:08.211Z,0.68
2024-03-09T00:45:36.591Z,0.60
2024-03-09T00:48:05.838Z,0.80
2024-03-09T00:50:34.535Z,0.57
2024-03-09T00:53:02.782Z,0.60
2024-03-09T00:55:31.030Z,0.70
2024-03-09T00:58:02.516Z,0.70
2024-03-09T01:00:30.510Z,0.70
2024-03-09T01:02:58.419Z,0.70
2024-03-09T01:05:27.987Z,0.90
2024-03-09T01:07:57.539Z,0.80
2024-03-09T01:10:26.029Z,1.10
2024-03-09T01:12:54.016Z,1.08
2024-03-09T01:15:23.387Z,0.90
2024-03-09T01:17:50.487Z,0.90
2024-03-09T01:20:19.328Z,0.95
2024-03-09T01:22:47.355Z,0.75
2024-03-09T01:25:16.162Z,1.00
2024-03-09T01:27:45.441Z,0.70
2024-03-09T01:30:13.800Z,0.82
2024-03-09T01:32:45.440Z,0.70
2024-03-09T01:35:14.830Z,0.90
2024-03-09T01:37:43.630Z,1.00
2024-03-09T01:40:12.829Z,1.00
2024-03-09T01:42:40.791Z,0.90
2024-03-09T01:45:09.434Z,0.82
2024-03-09T01:47:38.827Z,1.45
2024-03-09T01:50:12.732Z,1.00
2024-03-09T01:52:49.547Z,0.93
2024-03-09T01:55:20.139Z,0.75
2024-03-09T01:57:52.320Z,0.70
2024-03-09T02:00:22.118Z,0.80
2024-03-09T02:02:53.104Z,0.95
2024-03-09T02:05:23.287Z,0.80
2024-03-09T02:07:51.499Z,0.82
2024-03-09T02:10:20.758Z,0.70
2024-03-09T02:12:48.684Z,0.77
2024-03-09T02:15:18.214Z,0.70
2024-03-09T02:17:48.912Z,0.73
2024-03-09T02:20:19.658Z,0.68
2024-03-09T02:22:49.656Z,0.77
2024-03-09T02:25:22.706Z,0.90
2024-03-09T02:27:50.697Z,0.85
2024-03-09T02:30:18.673Z,0.60
2024-03-09T02:32:46.998Z,0.70
2024-03-09T02:35:15.028Z,0.65
2024-03-09T02:37:42.988Z,0.98
2024-03-09T02:40:13.441Z,0.77
2024-03-09T02:43:05.692Z,0.80
2024-03-09T02:45:34.223Z,0.70
2024-03-09T02:48:02.452Z,0.70
2024-03-09T02:50:30.545Z,0.68
2024-03-09T02:52:58.874Z,0.50
2024-03-09T02:55:28.797Z,0.80
2024-03-09T02:57:58.300Z,0.80
2024-03-09T03:00:28.919Z,0.65
2024-03-09T03:03:14.562Z,0.60
2024-03-09T03:05:43.783Z,0.60
2024-03-09T03:08:13.050Z,0.50
2024-03-09T03:10:42.088Z,0.60
2024-03-09T03:13:11.578Z,0.90
2024-03-09T03:15:40.192Z,0.60
2024-03-09T03:18:10.417Z,0.50
2024-03-09T03:20:39.470Z,0.70
2024-03-09T03:23:08.634Z,0.52
2024-03-09T03:25:37.277Z,0.68
2024-03-09T03:28:07.369Z,0.50
2024-03-09T03:30:38.962Z,0.60
2024-03-09T03:33:08.477Z,0.60
2024-03-09T03:35:38.155Z,0.50
2024-03-09T03:38:07.541Z,0.60
2024-03-09T03:40:36.203Z,0.40
2024-03-09T03:43:05.464Z,0.80
2024-03-09T03:45:33.828Z,0.60
2024-03-09T03:48:05.853Z,0.80
2024-03-09T03:50:33.984Z,0.73
2024-03-09T03:53:05.538Z,0.52
2024-03-09T03:55:34.203Z,0.75
2024-03-09T03:58:04.120Z,0.55
2024-03-09T04:00:32.027Z,0.70
2024-03-09T04:03:00.648Z,0.77
2024-03-09T04:05:31.227Z,0.50
2024-03-09T04:07:59.395Z,0.50
2024-03-09T04:10:27.416Z,0.40
2024-03-09T04:12:57.301Z,0.40
2024-03-09T04:15:25.937Z,0.50
2024-03-09T04:17:53.977Z,0.80
2024-03-09T04:20:22.921Z,0.60
2024-03-09T04:22:52.664Z,0.50
2024-03-09T04:25:20.853Z,0.90
2024-03-09T04:27:51.995Z,0.60
2024-03-09T04:30:20.060Z,0.63
2024-03-09T04:32:48.033Z,0.50
2024-03-09T04:35:16.692Z,0.60
2024-03-09T04:37:46.161Z,0.52
2024-03-09T04:40:17.670Z,0.60
2024-03-09T04:42:48.399Z,0.60
2024-03-09T04:45:20.387Z,0.70
2024-03-09T04:47:48.907Z,0.70
2024-03-09T04:50:20.313Z,0.50
2024-03-09T04:52:52.621Z,0.50
2024-03-09T04:55:27.043Z,0.63
2024-03-09T04:57:55.260Z,0.60
2024-03-09T05:00:25.308Z,0.70
2024-03-09T05:02:53.798Z,0.70
2024-03-09T05:05:21.803Z,0.50
2024-03-09T05:07:50.856Z,0.82
2024-03-09T05:10:20.714Z,0.57
2024-03-09T05:12:54.735Z,0.60
2024-03-09T05:15:23.391Z,0.65
2024-03-09T05:17:51.692Z,0.70
2024-03-09T05:20:23.665Z,0.60
2024-03-09T05:22:52.174Z,0.70
2024-03-09T05:25:22.504Z,0.70
2024-03-09T05:27:53.261Z,0.70
2024-03-09T05:30:23.949Z,0.60
2024-03-09T05:32:55.881Z,0.55
2024-03-09T05:35:25.064Z,0.77
2024-03-09T05:37:53.072Z,0.57
2024-03-09T05:40:21.598Z,0.60
2024-03-09T05:42:51.817Z,0.70
2024-03-09T05:45:22.141Z,0.70
2024-03-09T05:47:51.510Z,0.70
2024-03-09T05:50:19.995Z,0.70
2024-03-09T05:52:49.481Z,0.70
2024-03-09T05:55:18.224Z,0.80
2024-03-09T05:57:50.108Z,0.60
2024-03-09T06:00:21.312Z,0.50
2024-03-09T06:02:49.321Z,0.73
2024-03-09T06:05:17.564Z,0.70
2024-03-09T06:07:46.942Z,0.77
2024-03-09T06:10:18.118Z,0.70
2024-03-09T06:12:48.401Z,0.63
2024-03-09T06:15:17.076Z,0.70
2024-03-09T06:17:48.943Z,0.63
2024-03-09T06:20:21.502Z,0.50
2024-03-09T06:22:50.132Z,0.63
2024-03-09T06:25:24.506Z,0.98
2024-03-09T06:27:54.183Z,0.80
2024-03-09T06:30:28.864Z,0.63
2024-03-09T06:33:02.984Z,0.80
2024-03-09T06:35:33.645Z,0.90
2024-03-09T06:38:06.546Z,0.70
2024-03-09T06:40:37.420Z,0.70
2024-03-09T06:43:07.655Z,0.88
2024-03-09T06:45:37.398Z,0.50
2024-03-09T06:48:07.969Z,0.80
2024-03-09T06:50:37.277Z,0.80
2024-03-09T06:53:05.927Z,0.90
2024-03-09T06:55:34.143Z,0.80
2024-03-09T06:58:04.946Z,0.80
2024-03-09T07:00:35.871Z,0.70
2024-03-09T07:03:07.270Z,1.00
2024-03-09T07:05:37.176Z,0.73
2024-03-09T07:08:06.956Z,0.70
2024-03-09T07:10:36.542Z,0.70
2024-03-09T07:13:06.692Z,0.70
2024-03-09T07:15:34.891Z,0.88
2024-03-09T07:18:04.326Z,1.05
2024-03-09T07:20:34.810Z,0.98
2024-03-09T07:23:03.148Z,1.00
2024-03-09T07:25:31.853Z,1.10
2024-03-09T07:28:01.012Z,0.90
2024-03-09T07:30:34.489Z,0.80
2024-03-09T07:33:03.290Z,0.77
2024-03-09T07:35:34.980Z,0.70
2024-03-09T07:38:05.153Z,0.80
2024-03-09T07:40:35.225Z,0.85
2024-03-09T07:43:06.131Z,0.70
2024-03-09T07:45:34.946Z,0.80
2024-03-09T07:48:04.811Z,0.70
2024-03-09T07:50:34.318Z,0.70
2024-03-09T07:53:02.866Z,0.70
2024-03-09T07:55:34.480Z,0.68
2024-03-09T07:58:13.505Z,0.80
2024-03-09T08:00:51.274Z,0.70
2024-03-09T08:03:21.257Z,0.90
2024-03-09T08:05:49.560Z,0.57
2024-03-09T08:08:18.561Z,0.90
2024-03-09T08:10:53.461Z,0.90
2024-03-09T08:13:24.236Z,0.90
2024-03-09T08:15:53.916Z,0.75
2024-03-09T08:18:25.991Z,0.75
2024-03-09T08:20:54.088Z,0.60
2024-03-09T08:23:24.761Z,0.70
2024-03-09T08:25:54.962Z,0.93
2024-03-09T08:28:23.040Z,0.55
2024-03-09T08:30:54.279Z,0.80
2024-03-09T08:33:24.086Z,0.80
2024-03-09T08:35:56.929Z,0.80
2024-03-09T08:38:24.972Z,0.80
2024-03-09T08:40:55.365Z,0.90
2024-03-09T08:43:23.495Z,0.73
2024-03-09T08:45:51.893Z,0.60
2024-03-09T08:48:19.899Z,0.70
2024-03-09T08:50:47.986Z,0.70
2024-03-09T08:53:18.828Z,0.77
2024-03-09T08:55:48.586Z,0.93
2024-03-09T08:58:18.087Z,0.80
2024-03-09T09:00:45.997Z,1.10
2024-03-09T09:03:15.426Z,264.02
2024-03-09T09:05:43.446Z,343.65
2024-03-09T09:08:18.286Z,351.83
2024-03-09T09:10:46.365Z,229.63
2024-03-09T09:13:14.822Z,161.95
2024-03-09T09:15:47.774Z,119.57
2024-03-09T09:18:16.142Z,94.40
2024-03-09T09:20:46.398Z,80.47
2024-03-09T09:23:14.409Z,68.82
2024-03-09T09:25:42.469Z,58.33
2024-03-09T09:28:10.955Z,52.45
2024-03-09T09:30:38.857Z,47.45
2024-03-09T09:33:08.803Z,45.88
2024-03-09T09:35:37.395Z,41.67
2024-03-09T09:38:06.022Z,36.38
2024-03-09T09:40:34.312Z,37.05
2024-03-09T09:43:03.587Z,32.15
2024-03-09T09:45:35.867Z,31.33
2024-03-09T09:48:04.264Z,28.67
2024-03-09T09:50:36.965Z,26.67
2024-03-09T09:53:09.349Z,26.40
2024-03-09T09:55:38.820Z,24.38
2024-03-09T09:58:07.274Z,22.38
2024-03-09T10:00:38.592Z,22.58
2024-03-09T10:03:06.865Z,20.65
2024-03-09T10:05:36.273Z,20.33
2024-03-09T10:08:11.313Z,17.75
2024-03-09T10:10:44.337Z,17.63
2024-03-09T10:13:13.753Z,16.02
2024-03-09T10:15:44.376Z,15.95
2024-03-09T10:18:13.236Z,15.27
2024-03-09T10:20:42.540Z,14.40
2024-03-09T10:23:13.727Z,14.10
2024-03-09T10:25:42.887Z,13.77
2024-03-09T10:28:12.774Z,12.55
2024-03-09T10:30:41.478Z,13.18
2024-03-09T10:33:12.901Z,11.05
2024-03-09T10:35:46.725Z,11.07
2024-03-09T10:38:15.300Z,11.63
2024-03-09T10:40:44.095Z,11.15
2024-03-09T10:43:16.473Z,10.05
2024-03-09T10:45:51.428Z,9.88
2024-03-09T10:48:22.697Z,10.07
2024-03-09T10:51:07.124Z,9.65
2024-03-09T10:53:48.019Z,9.77
2024-03-09T10:56:22.352Z,8.55
2024-03-09T10:58:52.176Z,8.30
2024-03-09T11:01:23.289Z,8.20
2024-03-09T11:03:52.012Z,7.50
2024-03-09T11:06:23.274Z,7.90
2024-03-09T11:08:54.545Z,8.18
2024-03-09T11:11:25.061Z,6.78
2024-03-09T11:13:54.515Z,7.10
2024-03-09T11:16:22.909Z,6.68
2024-03-09T11:18:57.128Z,6.40
2024-03-09T11:21:31.070Z,5.75
2024-03-09T11:24:08.422Z,6.00
2024-03-09T11:26:41.057Z,6.18
2024-03-09T11:29:11.735Z,5.65
2024-03-09T11:31:42.340Z,5.85
2024-03-09T11:34:18.443Z,4.75
2024-03-09T11:36:51.348Z,4.78
2024-03-09T11:39:22.879Z,5.57
2024-03-09T11:41:52.085Z,4.53
2024-03-09T11:44:22.479Z,5.07
2024-03-09T11:46:50.633Z,4.28
2024-03-09T11:49:18.783Z,4.60
2024-03-09T11:51:50.326Z,4.18
2024-03-09T11:54:20.236Z,4.03
2024-03-09T11:56:48.832Z,4.78
2024-03-09T11:59:17.116Z,4.13
2024-03-09T12:01:45.796Z,4.15
2024-03-09T12:04:14.688Z,3.80
2024-03-09T12:06:43.753Z,4.00
2024-03-09T12:09:15.288Z,3.78
2024-03-09T12:11:47.863Z,3.47
2024-03-09T12:14:17.646Z,3.33
2024-03-09T12:16:49.993Z,3.70
2024-03-09T12:19:19.106Z,2.60
2024-03-09T12:21:47.175Z,3.15
2024-03-09T12:24:16.742Z,3.25
2024-03-09T12:26:45.407Z,3.15
2024-03-09T12:29:14.858Z,3.28
2024-03-09T12:31:45.584Z,3.10
2024-03-09T12:34:14.776Z,2.88
2024-03-09T12:36:52.190Z,2.58
2024-03-09T12:39:22.228Z,2.40
2024-03-09T12:41:52.825Z,2.47
2024-03-09T12:44:22.321Z,2.47
2024-03-09T12:46:50.873Z,2.42
2024-03-09T12:49:20.626Z,2.40
2024-03-09T12:51:50.643Z,2.30
2024-03-09T12:54:20.282Z,2.40
2024-03-09T12:56:51.131Z,2.50
2024-03-09T12:59:22.892Z,2.42
2024-03-09T13:01:52.608Z,2.17
2024-03-09T13:04:26.512Z,2.15
2024-03-09T13:06:56.683Z,2.35
2024-03-09T13:09:31.695Z,2.30
2024-03-09T13:12:01.211Z,2.22
2024-03-09T13:14:29.511Z,2.05
2024-03-09T13:16:57.528Z,2.30
2024-03-09T13:19:25.432Z,2.05
2024-03-09T13:21:53.885Z,1.80
2024-03-09T13:24:23.744Z,1.95
2024-03-09T13:26:54.678Z,2.25
2024-03-09T13:29:29.869Z,2.22
2024-03-09T13:32:00.098Z,1.70
2024-03-09T13:34:31.766Z,1.85
2024-03-09T13:37:03.467Z,2.05
2024-03-09T13:39:36.773Z,1.60
2024-03-09T13:42:09.668Z,1.98
2024-03-09T13:44:39.962Z,2.03
2024-03-09T13:47:12.801Z,2.17
2024-03-09T13:49:41.667Z,1.90
2024-03-09T13:52:11.386Z,1.75
2024-03-09T13:54:39.607Z,2.20
2024-03-09T13:57:07.624Z,2.03
2024-03-09T13:59:36.616Z,1.75
2024-03-09T14:02:09.562Z,2.08
2024-03-09T14:04:37.835Z,1.85
2024-03-09T14:07:09.246Z,1.88
2024-03-09T14:09:47.010Z,1.48
2024-03-09T14:12:17.007Z,2.28
2024-03-09T14:14:44.982Z,2.10
2024-03-09T14:17:14.391Z,2.33
2024-03-09T14:19:42.443Z,2.05
2024-03-09T14:22:12.462Z,1.85
2024-03-09T14:24:41.085Z,2.20
2024-03-09T14:27:09.823Z,1.88
2024-03-09T14:29:38.261Z,2.20
2024-03-09T14:32:07.782Z,2.05
2024-03-09T14:34:41.931Z,1.50
2024-03-09T14:37:11.027Z,2.00
2024-03-09T14:39:38.946Z,2.20
2024-03-09T14:42:07.344Z,1.70
2024-03-09T14:44:35.244Z,1.73
2024-03-09T14:47:05.834Z,1.80
2024-03-09T14:49:35.521Z,2.20
2024-03-09T14:52:06.251Z,1.90
2024-03-09T14:54:37.783Z,2.00
2024-03-09T14:57:08.625Z,1.83
2024-03-09T14:59:36.647Z,1.80
2024-03-09T15:02:08.208Z,1.77
2024-03-09T15:04:36.312Z,1.65
2024-03-09T15:07:07.241Z,1.60
2024-03-09T15:09:35.455Z,1.58
2024-03-09T15:12:08.932Z,1.70
2024-03-09T15:14:36.998Z,1.58
2024-03-09T15:17:10.594Z,1.80
2024-03-09T15:19:38.982Z,1.50
2024-03-09T15:22:08.281Z,1.40
2024-03-09T15:24:36.330Z,1.30
2024-03-09T15:27:04.447Z,1.55
2024-03-09T15:29:32.738Z,1.70
2024-03-09T15:32:04.233Z,1.70
2024-03-09T15:34:32.278Z,1.90
2024-03-09T15:37:00.165Z,1.50
2024-03-09T15:39:29.539Z,1.42
2024-03-09T15:41:59.357Z,1.50
2024-03-09T15:44:28.819Z,1.70
2024-03-09T15:46:57.065Z,1.40
2024-03-09T15:49:25.099Z,1.55
2024-03-09T15:51:55.164Z,1.75
2024-03-09T15:54:25.830Z,1.48
2024-03-09T15:56:55.402Z,1.52
2024-03-09T15:59:23.503Z,1.63
2024-03-09T16:01:53.000Z,1.50
2024-03-09T16:04:20.960Z,1.40
2024-03-09T16:06:48.930Z,1.50
2024-03-09T16:09:22.042Z,1.52
2024-03-09T16:11:51.229Z,1.42
2024-03-09T16:14:22.500Z,1.60
2024-03-09T16:16:51.376Z,1.50
2024-03-09T16:19:19.891Z,2.00
2024-03-09T16:21:48.774Z,1.40
2024-03-09T16:24:17.459Z,1.85
2024-03-09T16:26:47.254Z,1.42
2024-03-09T16:29:17.532Z,1.65
2024-03-09T16:31:47.071Z,1.58
2024-03-09T16:34:16.627Z,1.40
2024-03-09T16:36:44.538Z,1.48
2024-03-09T16:39:12.724Z,1.70
2024-03-09T16:41:40.692Z,1.55
2024-03-09T16:44:08.765Z,1.50
2024-03-09T16:46:38.620Z,1.63
2024-03-09T16:49:12.978Z,1.70
2024-03-09T16:51:41.887Z,1.60
2024-03-09T16:54:12.967Z,1.60
2024-03-09T16:56:40.977Z,1.38
2024-03-09T16:59:09.012Z,1.60
2024-03-09T17:01:44.264Z,1.48
2024-03-09T17:04:13.942Z,1.40
2024-03-09T17:06:43.804Z,1.70
2024-03-09T17:09:12.581Z,1.40
2024-03-09T17:11:40.982Z,1.60
2024-03-09T17:14:09.114Z,1.38
2024-03-09T17:16:37.976Z,1.13
2024-03-09T17:19:12.189Z,1.52
2024-03-09T17:21:42.055Z,1.50
2024-03-09T17:24:10.535Z,1.50
2024-03-09T17:26:40.621Z,1.58
2024-03-09T17:29:08.708Z,1.85
2024-03-09T17:31:39.329Z,1.63
2024-03-09T17:34:08.504Z,1.80
2024-03-09T17:36:36.650Z,2.10
2024-03-09T17:39:06.481Z,2.83
2024-03-09T17:41:34.385Z,2.10
2024-03-09T17:44:07.763Z,2.20
2024-03-09T17:46:36.074Z,1.73
2024-03-09T17:49:04.014Z,2.28
2024-03-09T17:51:32.035Z,1.50
2024-03-09T17:54:02.380Z,2.10
2024-03-09T17:56:31.926Z,1.83
2024-03-09T17:59:01.938Z,2.20
2024-03-09T18:01:29.978Z,2.03
2024-03-09T18:03:58.004Z,1.67
2024-03-09T18:06:26.857Z,1.50
2024-03-09T18:08:54.815Z,1.92
2024-03-09T18:11:24.945Z,1.90
2024-03-09T18:13:54.988Z,1.38
2024-03-09T18:16:23.336Z,1.38
2024-03-09T18:18:52.523Z,1.90
2024-03-09T18:21:25.939Z,1.50
2024-03-09T18:23:54.133Z,1.33
2024-03-09T18:26:22.078Z,1.40
2024-03-09T18:28:51.588Z,1.58
2024-03-09T18:31:21.174Z,1.40
2024-03-09T18:33:50.578Z,1.60
2024-03-09T18:36:18.760Z,1.70
2024-03-09T18:38:47.874Z,1.67
2024-03-09T18:41:17.190Z,1.40
2024-03-09T18:43:46.290Z,1.23
2024-03-09T18:46:20.689Z,1.45
2024-03-09T18:48:50.273Z,1.45
2024-03-09T18:51:19.304Z,1.25
2024-03-09T18:53:50.287Z,1.38
2024-03-09T18:56:21.195Z,1.08
2024-03-09T18:58:50.358Z,1.23
2024-03-09T19:01:18.398Z,1.48
2024-03-09T19:03:46.741Z,1.48
2024-03-09T19:06:16.955Z,1.02
2024-03-09T19:08:45.159Z,1.20
2024-03-09T19:11:13.263Z,1.27
2024-03-09T19:13:41.505Z,1.17
2024-03-09T19:16:09.510Z,1.20
2024-03-09T19:18:37.561Z,1.08
2024-03-09T19:21:11.040Z,1.55
2024-03-09T19:23:41.791Z,1.38
2024-03-09T19:26:16.081Z,1.15
2024-03-09T19:28:45.012Z,1.40
2024-03-09T19:31:13.684Z,1.20
2024-03-09T19:33:42.737Z,1.38
2024-03-09T19:36:10.999Z,1.20
2024-03-09T19:38:40.434Z,1.10
2024-03-09T19:41:11.189Z,1.23
2024-03-09T19:43:39.307Z,1.30
2024-03-09T19:46:07.241Z,1.02
2024-03-09T19:48:35.464Z,1.10
2024-03-09T19:51:05.630Z,1.30
2024-03-09T19:53:34.701Z,1.02
2024-03-09T19:56:06.195Z,1.17
2024-03-09T19:58:34.196Z,1.10
2024-03-09T20:01:04.491Z,1.20
2024-03-09T20:03:35.941Z,1.17
2024-03-09T20:06:06.794Z,1.33
2024-03-09T20:08:35.691Z,1.00
2024-03-09T20:11:07.791Z,1.20
2024-03-09T20:13:36.348Z,1.13
2024-03-09T20:16:05.961Z,1.40
2024-03-09T20:18:35.073Z,1.20
2024-03-09T20:21:03.343Z,1.38
2024-03-09T20:23:31.324Z,1.08
2024-03-09T20:26:01.475Z,1.20
2024-03-09T20:28:30.936Z,1.23
2024-03-09T20:31:01.575Z,1.30
2024-03-09T20:33:29.929Z,1.70
2024-03-09T20:35:57.953Z,1.30
2024-03-09T20:38:25.924Z,1.45
2024-03-09T20:40:54.242Z,1.30
2024-03-09T20:43:22.559Z,1.15
2024-03-09T20:45:52.949Z,1.30
2024-03-09T20:48:21.198Z,1.38
2024-03-09T20:50:50.693Z,1.55
2024-03-09T20:53:24.742Z,1.60
2024-03-09T20:55:53.089Z,1.40
2024-03-09T20:58:21.364Z,1.50
2024-03-09T21:00:51.218Z,1.40
2024-03-09T21:03:19.239Z,1.20
2024-03-09T21:05:47.469Z,1.05
2024-03-09T21:08:15.437Z,1.38
2024-03-09T21:10:45.403Z,1.33
2024-03-09T21:13:13.389Z,1.23
2024-03-09T21:15:41.366Z,1.38
2024-03-09T21:18:10.864Z,1.65
2024-03-09T21:20:38.996Z,1.48
2024-03-09T21:23:09.990Z,1.20
2024-03-09T21:25:38.803Z,1.45
2024-03-09T21:28:07.743Z,1.48
2024-03-09T21:30:35.790Z,1.35
2024-03-09T21:33:03.792Z,1.40
2024-03-09T21:35:33.120Z,1.45
2024-03-09T21:38:01.433Z,1.55
2024-03-09T21:40:29.378Z,1.42
2024-03-09T21:42:57.338Z,1.27
2024-03-09T21:45:25.449Z,1.27
2024-03-09T21:47:54.783Z,1.30
2024-03-09T21:50:25.321Z,1.50
2024-03-09T21:52:56.254Z,1.40
2024-03-09T21:55:25.116Z,1.27
2024-03-09T21:57:53.837Z,1.70
2024-03-09T22:00:23.309Z,1.10
2024-03-09T22:02:54.593Z,1.40
2024-03-09T22:05:24.414Z,1.40
2024-03-09T22:07:52.853Z,1.38
2024-03-09T22:10:24.223Z,1.23
2024-03-09T22:12:55.971Z,1.50
2024-03-09T22:15:26.501Z,1.50
2024-03-09T22:17:55.642Z,1.52
2024-03-09T22:20:24.010Z,1.55
2024-03-09T22:22:52.047Z,1.30
2024-03-09T22:25:26.619Z,1.38
2024-03-09T22:27:54.877Z,1.30
2024-03-09T22:30:23.181Z,1.30
2024-03-09T22:32:51.563Z,1.20
2024-03-09T22:35:19.920Z,1.25
2024-03-09T22:37:48.520Z,1.42
2024-03-09T22:40:18.679Z,1.40
2024-03-09T22:42:48.219Z,1.30
2024-03-09T22:45:17.264Z,1.20
2024-03-09T22:47:47.276Z,1.00
2024-03-09T22:50:17.618Z,1.10
2024-03-09T22:52:46.648Z,1.30
2024-03-09T22:55:16.253Z,0.95
2024-03-09T22:57:44.509Z,1.30
2024-03-09T23:00:34.729Z,1.10
2024-03-09T23:03:03.030Z,1.13
2024-03-09T23:05:32.397Z,0.95
2024-03-09T23:08:00.671Z,0.95
2024-03-09T23:10:29.799Z,0.93
2024-03-09T23:12:57.953Z,0.77
2024-03-09T23:15:27.521Z,0.70
2024-03-09T23:17:57.083Z,0.93
2024-03-09T23:20:28.466Z,0.80
2024-03-09T23:22:59.013Z,0.90
2024-03-09T23:25:28.053Z,0.63
2024-03-09T23:27:56.032Z,1.13
2024-03-09T23:30:25.846Z,0.77
2024-03-09T23:32:56.884Z,0.70
2024-03-09T23:35:26.909Z,1.15
2024-03-09T23:37:55.656Z,1.00
2024-03-09T23:40:23.637Z,0.70
2024-03-09T23:42:51.762Z,0.73
2024-03-09T23:45:20.759Z,0.70
2024-03-09T23:47:50.299Z,0.73
2024-03-09T23:50:21.524Z,0.90
2024-03-09T23:52:51.018Z,0.63
2024-03-09T23:55:21.340Z,0.70
2024-03-09T23:57:49.664Z,0.73
